createdAt,value
2023-02-14T00:03:28.865Z,98138.00
2023-02-14T00:07:36.165Z,98133.00
2023-02-14T00:11:44.197Z,98138.00
2023-02-14T00:15:49.497Z,98133.00
2023-02-14T00:19:57.527Z,98134.00
2023-02-14T00:24:02.698Z,98147.00
2023-02-14T00:28:05.914Z,98141.00
2023-02-14T00:32:13.282Z,98140.00
2023-02-14T00:36:23.152Z,98145.00
2023-02-14T00:40:26.615Z,98147.00
2023-02-14T00:44:29.726Z,98135.00
2023-02-14T00:48:34.158Z,98146.00
2023-02-14T00:52:39.407Z,98147.00
2023-02-14T00:56:42.504Z,98144.00
2023-02-14T01:00:46.277Z,98149.00
2023-02-14T01:04:51.229Z,98149.00
2023-02-14T01:08:54.303Z,98156.00
2023-02-14T01:12:59.824Z,98155.00
2023-02-14T01:17:03.145Z,98162.00
2023-02-14T01:21:20.799Z,98153.00
2023-02-14T01:25:23.947Z,98158.00
2023-02-14T01:29:26.989Z,98158.00
2023-02-14T01:33:30.086Z,98146.00
2023-02-14T01:37:34.479Z,98151.00
2023-02-14T01:41:39.801Z,98141.00
2023-02-14T01:45:43.119Z,98139.00
2023-02-14T01:49:52.204Z,98147.00
2023-02-14T01:53:58.137Z,98137.00
2023-02-14T01:58:06.206Z,98133.00
2023-02-14T02:02:09.621Z,98137.00
2023-02-14T02:06:17.231Z,98133.00
2023-02-14T02:10:22.076Z,98144.00
2023-02-14T02:14:25.486Z,98138.00
2023-02-14T02:18:38.500Z,98135.00
2023-02-14T02:23:12.542Z,98137.00
2023-02-14T02:27:31.678Z,98120.00
2023-02-14T02:32:07.127Z,98111.00
2023-02-14T02:36:47.413Z,98115.00
2023-02-14T02:41:07.209Z,98124.00
2023-02-14T02:45:17.868Z,98115.00
2023-02-14T02:49:51.353Z,98125.00
2023-02-14T02:54:00.513Z,98137.00
2023-02-14T02:58:04.508Z,98129.00
2023-02-14T03:02:12.754Z,98125.00
2023-02-14T03:06:15.841Z,98121.00
2023-02-14T03:10:22.366Z,98120.00
2023-02-14T03:14:35.159Z,98109.00
2023-02-14T03:19:12.464Z,98099.00
2023-02-14T03:23:25.275Z,98101.00
2023-02-14T03:27:36.592Z,98123.00
2023-02-14T03:31:51.943Z,98107.00
2023-02-14T03:36:02.069Z,98111.00
2023-02-14T03:40:12.176Z,98120.00
2023-02-14T03:44:21.199Z,98110.00
2023-02-14T03:48:26.360Z,98116.00
2023-02-14T03:52:32.993Z,98113.00
2023-02-14T03:56:39.907Z,98108.00
2023-02-14T04:00:49.194Z,98112.00
2023-02-14T04:04:56.499Z,98109.00
2023-02-14T04:09:01.974Z,98111.00
2023-02-14T04:13:09.995Z,98117.00
2023-02-14T04:17:32.037Z,98116.00
2023-02-14T04:21:35.052Z,98112.00
2023-02-14T04:25:40.061Z,98117.00
2023-02-14T04:29:44.699Z,98118.00
2023-02-14T04:33:51.355Z,98119.00
2023-02-14T04:38:06.438Z,98107.00
2023-02-14T04:42:15.545Z,98096.00
2023-02-14T04:46:21.277Z,98104.00
2023-02-14T04:50:26.595Z,98104.00
2023-02-14T04:54:30.354Z,98095.00
2023-02-14T04:58:34.171Z,98097.00
2023-02-14T05:02:38.329Z,98093.00
2023-02-14T05:06:42.981Z,98083.00
2023-02-14T05:10:46.048Z,98078.00
2023-02-14T05:14:51.948Z,98079.00
2023-02-14T05:18:55.113Z,98086.00
2023-02-14T05:23:03.353Z,98082.00
2023-02-14T05:27:07.704Z,98087.00
2023-02-14T05:31:11.492Z,98082.00
2023-02-14T05:35:14.710Z,98087.00
2023-02-14T05:39:19.304Z,98088.00
2023-02-14T05:43:26.330Z,98090.00
2023-02-14T05:47:31.629Z,98092.00
2023-02-14T05:51:34.968Z,98090.00
2023-02-14T05:55:42.427Z,98092.00
2023-02-14T05:59:47.038Z,98091.00
2023-02-14T06:03:52.640Z,98090.00
2023-02-14T06:07:58.239Z,98094.00
2023-02-14T06:12:07.185Z,98100.00
2023-02-14T06:16:12.748Z,98108.00
2023-02-14T06:20:18.505Z,98104.00
2023-02-14T06:24:21.632Z,98104.00
2023-02-14T06:28:26.076Z,98110.00
2023-02-14T06:32:29.345Z,98100.00
2023-02-14T06:36:32.416Z,98105.00
2023-02-14T06:40:37.212Z,98106.00
2023-02-14T06:44:44.242Z,98109.00
2023-02-14T06:48:47.904Z,98112.00
2023-02-14T06:52:51.627Z,98104.00
2023-02-14T06:56:54.994Z,98104.00
2023-02-14T07:01:04.549Z,98097.00
2023-02-14T07:05:07.804Z,98103.00
2023-02-14T07:09:11.049Z,98097.00
2023-02-14T07:13:18.416Z,98092.00
2023-02-14T07:17:25.633Z,98090.00
2023-02-14T07:21:28.798Z,98081.00
2023-02-14T07:25:34.494Z,98079.00
2023-02-14T07:29:37.840Z,98078.00
2023-02-14T07:33:44.023Z,98072.00
2023-02-14T07:37:51.251Z,98080.00
2023-02-14T07:41:56.163Z,98076.00
2023-02-14T07:46:01.380Z,98075.00
2023-02-14T07:50:12.998Z,98082.00
2023-02-14T07:54:23.255Z,98080.00
2023-02-14T07:58:26.624Z,98069.00
2023-02-14T08:02:31.028Z,98065.00
2023-02-14T08:06:35.491Z,98073.00
2023-02-14T08:10:38.786Z,98074.00
2023-02-14T08:14:45.372Z,98073.00
2023-02-14T08:18:50.239Z,98082.00
2023-02-14T08:22:55.438Z,98073.00
2023-02-14T08:27:01.917Z,98073.00
2023-02-14T08:31:06.275Z,98074.00
2023-02-14T08:35:10.995Z,98078.00
2023-02-14T08:39:15.994Z,98070.00
2023-02-14T08:43:19.203Z,98071.00
2023-02-14T08:47:23.596Z,98070.00
2023-02-14T08:51:28.187Z,98068.00
2023-02-14T08:55:33.049Z,98078.00
2023-02-14T08:59:41.161Z,98068.00
2023-02-14T09:03:46.322Z,98066.00
2023-02-14T09:07:51.890Z,98065.00
2023-02-14T09:11:57.339Z,98075.00
2023-02-14T09:16:04.251Z,98081.00
2023-02-14T09:20:10.360Z,98077.00
2023-02-14T09:24:13.392Z,98085.00
2023-02-14T09:28:18.160Z,98078.00
2023-02-14T09:32:26.625Z,98082.00
2023-02-14T09:36:30.025Z,98087.00
2023-02-14T09:40:34.512Z,98078.00
2023-02-14T09:44:44.914Z,98070.00
2023-02-14T09:48:49.771Z,98076.00
2023-02-14T09:52:59.073Z,98075.00
2023-02-14T09:57:07.887Z,98073.00
2023-02-14T10:01:18.906Z,98081.00
2023-02-14T10:05:25.050Z,98076.00
2023-02-14T10:09:53.593Z,98075.00
2023-02-14T10:14:01.914Z,98073.00
2023-02-14T10:18:12.318Z,98074.00
2023-02-14T10:22:17.826Z,98067.00
2023-02-14T10:26:29.165Z,98056.00
2023-02-14T10:30:39.681Z,98066.00
2023-02-14T10:34:50.113Z,98061.00
2023-02-14T10:39:03.399Z,98057.00
2023-02-14T10:43:18.628Z,98055.00
2023-02-14T10:47:35.760Z,98051.00
2023-02-14T10:51:53.778Z,98050.00
2023-02-14T10:56:06.128Z,98053.00
2023-02-14T11:00:21.579Z,98050.00
2023-02-14T11:04:26.313Z,98053.00
2023-02-14T11:08:38.851Z,98051.00
2023-02-14T11:12:45.153Z,98038.00
2023-02-14T11:16:51.710Z,98045.00
2023-02-14T11:21:11.771Z,98045.00
2023-02-14T11:25:21.877Z,98041.00
2023-02-14T11:29:32.430Z,98041.00
2023-02-14T11:33:42.381Z,98031.00
2023-02-14T11:37:50.960Z,98021.00
2023-02-14T11:42:03.941Z,98023.00
2023-02-14T11:46:13.402Z,98012.00
2023-02-14T11:50:24.851Z,98001.00
2023-02-14T11:54:33.058Z,98002.00
2023-02-14T11:58:45.646Z,98005.00
2023-02-14T12:02:53.572Z,97988.00
2023-02-14T12:06:58.281Z,97984.00
2023-02-14T12:11:06.095Z,97985.00
2023-02-14T12:15:26.592Z,97971.00
2023-02-14T12:19:38.649Z,97970.00
2023-02-14T12:23:48.329Z,97962.00
2023-02-14T12:27:56.610Z,97960.00
2023-02-14T12:32:07.269Z,97963.00
2023-02-14T12:36:21.416Z,97959.00
2023-02-14T12:40:31.326Z,97950.00
2023-02-14T12:44:46.643Z,97937.00
2023-02-14T12:49:20.416Z,97941.00
2023-02-14T12:53:57.807Z,97931.00
2023-02-14T12:58:08.921Z,97936.00
2023-02-14T13:02:56.661Z,97933.00
2023-02-14T13:07:10.123Z,97935.00
2023-02-14T13:11:24.676Z,97936.00
2023-02-14T13:15:35.899Z,97921.00
2023-02-14T13:19:49.518Z,97926.00
2023-02-14T13:24:07.219Z,97920.00
2023-02-14T13:28:14.531Z,97920.00
2023-02-14T13:32:21.503Z,97913.00
2023-02-14T13:36:25.817Z,97918.00
2023-02-14T13:40:32.282Z,97908.00
2023-02-14T13:44:48.994Z,97905.00
2023-02-14T13:49:23.405Z,97906.00
2023-02-14T13:53:35.296Z,97910.00
2023-02-14T13:57:44.103Z,97908.00
2023-02-14T14:01:50.279Z,97900.00
2023-02-14T14:06:06.668Z,97899.00
2023-02-14T14:10:15.855Z,97894.00
2023-02-14T14:14:40.829Z,97896.00
2023-02-14T14:18:44.560Z,97887.00
2023-02-14T14:22:52.065Z,97891.00
2023-02-14T14:27:01.069Z,97886.00
2023-02-14T14:31:10.592Z,97881.00
2023-02-14T14:35:23.902Z,97882.00
2023-02-14T14:39:29.463Z,97889.00
2023-02-14T14:43:37.139Z,97871.00
2023-02-14T14:47:45.601Z,97868.00
2023-02-14T14:51:54.183Z,97874.00
2023-02-14T14:56:00.209Z,97869.00
2023-02-14T15:00:23.032Z,97861.00
2023-02-14T15:04:38.557Z,97855.00
2023-02-14T15:08:41.606Z,97854.00
2023-02-14T15:13:02.004Z,97855.00
2023-02-14T15:17:06.862Z,97862.00
2023-02-14T15:21:12.449Z,97855.00
2023-02-14T15:25:21.373Z,97846.00
2023-02-14T15:29:33.929Z,97844.00
2023-02-14T15:33:40.870Z,97854.00
2023-02-14T15:37:47.674Z,97850.00
2023-02-14T15:41:55.547Z,97848.00
2023-02-14T15:46:15.575Z,97843.00
2023-02-14T15:50:24.295Z,97853.00
2023-02-14T15:54:34.296Z,97849.00
2023-02-14T15:58:46.290Z,97844.00
2023-02-14T16:02:55.207Z,97846.00
2023-02-14T16:07:10.379Z,97840.00
2023-02-14T16:11:30.157Z,97835.00
2023-02-14T16:15:37.825Z,97837.00
2023-02-14T16:19:42.642Z,97840.00
2023-02-14T16:23:47.646Z,97843.00
2023-02-14T16:27:54.474Z,97843.00
2023-02-14T16:32:15.238Z,97846.00
2023-02-14T16:36:25.294Z,97848.00
2023-02-14T16:40:29.200Z,97847.00
2023-02-14T16:44:37.630Z,97851.00
2023-02-14T16:48:40.784Z,97852.00
2023-02-14T16:52:46.926Z,97851.00
2023-02-14T16:56:53.653Z,97853.00
2023-02-14T17:00:59.505Z,97852.00
2023-02-14T17:05:07.317Z,97858.00
2023-02-14T17:09:15.515Z,97864.00
2023-02-14T17:13:22.455Z,97861.00
2023-02-14T17:17:30.536Z,97854.00
2023-02-14T17:21:35.563Z,97861.00
2023-02-14T17:25:41.202Z,97868.00
2023-02-14T17:29:44.224Z,97863.00
2023-02-14T17:33:48.893Z,97862.00
2023-02-14T17:37:54.940Z,97867.00
2023-02-14T17:41:58.259Z,97871.00
2023-02-14T17:46:05.774Z,97875.00
2023-02-14T17:50:11.415Z,97875.00
2023-02-14T17:54:14.468Z,97881.00
2023-02-14T17:58:17.776Z,97879.00
2023-02-14T18:02:20.821Z,97868.00
2023-02-14T18:06:26.642Z,97872.00
2023-02-14T18:10:31.997Z,97859.00
2023-02-14T18:14:35.259Z,97859.00
2023-02-14T18:18:40.366Z,97853.00
2023-02-14T18:22:47.054Z,97854.00
2023-02-14T18:26:50.558Z,97855.00
2023-02-14T18:30:54.853Z,97842.00
2023-02-14T18:35:00.618Z,97846.00
2023-02-14T18:39:06.166Z,97843.00
2023-02-14T18:43:09.238Z,97840.00
2023-02-14T18:47:13.632Z,97853.00
2023-02-14T18:51:21.635Z,97838.00
2023-02-14T18:55:28.064Z,97838.00
2023-02-14T18:59:35.869Z,97840.00
2023-02-14T19:03:44.060Z,97849.00
2023-02-14T19:07:47.274Z,97842.00
2023-02-14T19:11:53.457Z,97838.00
2023-02-14T19:15:59.781Z,97835.00
2023-02-14T19:20:08.785Z,97832.00
2023-02-14T19:24:12.043Z,97826.00
2023-02-14T19:28:16.717Z,97831.00
2023-02-14T19:32:20.975Z,97821.00
2023-02-14T19:36:28.761Z,97820.00
2023-02-14T19:40:37.013Z,97817.00
2023-02-14T19:44:52.262Z,97810.00
2023-02-14T19:49:04.608Z,97808.00
2023-02-14T19:53:09.640Z,97816.00
2023-02-14T19:57:17.462Z,97808.00
2023-02-14T20:01:25.986Z,97802.00
2023-02-14T20:05:30.109Z,97814.00
2023-02-14T20:09:33.198Z,97817.00
2023-02-14T20:13:36.271Z,97821.00
2023-02-14T20:17:40.944Z,97821.00
2023-02-14T20:21:50.676Z,97818.00
2023-02-14T20:25:53.861Z,97809.00
2023-02-14T20:29:57.285Z,97810.00
2023-02-14T20:34:02.633Z,97808.00
2023-02-14T20:38:07.771Z,97795.00
2023-02-14T20:42:11.526Z,97791.00
2023-02-14T20:46:17.419Z,97790.00
2023-02-14T20:50:27.626Z,97790.00
2023-02-14T20:54:31.385Z,97783.00
2023-02-14T20:58:38.373Z,97778.00
2023-02-14T21:02:44.428Z,97782.00
2023-02-14T21:06:49.140Z,97783.00
2023-02-14T21:10:52.175Z,97776.00
2023-02-14T21:14:55.625Z,97769.00
2023-02-14T21:19:01.894Z,97768.00
2023-02-14T21:23:08.242Z,97761.00
2023-02-14T21:27:13.920Z,97765.00
2023-02-14T21:31:20.920Z,97757.00
2023-02-14T21:35:24.902Z,97759.00
2023-02-14T21:39:31.114Z,97749.00
2023-02-14T21:43:36.043Z,97745.00
2023-02-14T21:48:04.487Z,97755.00
2023-02-14T21:52:09.239Z,97747.00
2023-02-14T21:56:20.475Z,97741.00
2023-02-14T22:00:25.422Z,97736.00
2023-02-14T22:04:30.444Z,97742.00
2023-02-14T22:08:40.851Z,97738.00
2023-02-14T22:12:45.399Z,97729.00
2023-02-14T22:16:48.438Z,97729.00
2023-02-14T22:20:55.344Z,97720.00
2023-02-14T22:24:58.610Z,97727.00
2023-02-14T22:29:03.705Z,97725.00
2023-02-14T22:33:06.749Z,97731.00
2023-02-14T22:37:09.908Z,97729.00
2023-02-14T22:41:15.511Z,97735.00
2023-02-14T22:45:20.348Z,97734.00
2023-02-14T22:49:23.362Z,97725.00
2023-02-14T22:53:26.431Z,97725.00
2023-02-14T22:57:36.174Z,97712.00
2023-02-14T23:01:43.768Z,97720.00
2023-02-14T23:05:48.948Z,97706.00
2023-02-14T23:09:54.235Z,97704.00
2023-02-14T23:14:15.256Z,97705.00
2023-02-14T23:18:37.285Z,97698.00
2023-02-14T23:22:41.894Z,97703.00
2023-02-14T23:26:45.075Z,97703.00
2023-02-14T23:30:48.153Z,97700.00
2023-02-14T23:34:53.820Z,97700.00
2023-02-14T23:38:59.043Z,97700.00
2023-02-14T23:43:02.067Z,97697.00
2023-02-14T23:47:07.419Z,97691.00
2023-02-14T23:51:11.825Z,97686.00
2023-02-14T23:55:14.859Z,97680.00
2023-02-14T23:59:18.419Z,97678.00
